»·PEaware :: N321SF KBUR-KPSP

N321SF :: KBUR-KPSP

FLIGHT INFORMATION

Flight Status: Arrived
Operator: Privately registered:
United States
More flights under this callsign
Pilot: Robert C. (14767)
Aircraft: Unknown
(A36)
More flights by this aircraft type
Origin: KBUR Bob Hope-Burbank
United States
Destination: KPSP Palm Springs Intl
United States
More flights between these airports :: More routes between these airports
Route: +ELMOO8 ELMOO ITSME V264 POM PDZ NIKKL TRM
File this flight plan on PilotEdge
Remarks: WX is 300 ft above minimum at all three airports
Altitude:
(Current/Filed)
11,000ft
Speed:
(Current/Filed)
150kts
Departed: 10-Apr-17 06:18 PM
Arrived: 10-Apr-17 07:18 PM
Distance/Time
Traveled:
95nm/0:59
Distance/Time
To Go:
Arrived

Flight Plot

Page will automatically refresh every two minutes.

Flight plan parsing failed; only flown route is shown


Map Options




Map Legend


Flown Route
Filed Route
Departure Airport
Arrival Airport
Navaid (VOR, NDB)
Fix

Horizontal Profiles

Position Reports

Time Latitude Longitude Heading Altitude Ground
Speed
10-Apr-17 17:46 34.196339 -118.367564 358 740ft 0kts
10-Apr-17 17:47 34.196339 -118.367564 358 740ft 0kts
10-Apr-17 17:48 34.196339 -118.367564 358 740ft 0kts
10-Apr-17 17:49 34.196339 -118.367564 358 740ft 0kts
10-Apr-17 17:56 34.196339 -118.367563 0 740ft 0kts
10-Apr-17 17:57 34.196339 -118.367563 358 740ft 0kts
10-Apr-17 17:58 34.196339 -118.367563 358 740ft 0kts
10-Apr-17 17:59 34.196339 -118.367563 358 740ft 0kts
10-Apr-17 18:00 34.196339 -118.367563 358 740ft 0kts
10-Apr-17 18:01 34.196339 -118.367563 358 740ft 0kts
10-Apr-17 18:02 34.196339 -118.367563 358 740ft 0kts
10-Apr-17 18:03 34.196339 -118.367563 358 740ft 0kts
10-Apr-17 18:04 34.196339 -118.367563 358 740ft 0kts
10-Apr-17 18:05 34.196339 -118.367563 358 740ft 0kts
10-Apr-17 18:06 34.196339 -118.367563 358 740ft 0kts
10-Apr-17 18:07 34.196339 -118.367563 358 740ft 0kts
10-Apr-17 18:08 34.196339 -118.367563 358 740ft 0kts
10-Apr-17 18:09 34.196339 -118.367563 358 740ft 0kts
10-Apr-17 18:10 34.196339 -118.367563 358 740ft 0kts
10-Apr-17 18:11 34.196339 -118.367563 358 740ft 0kts
10-Apr-17 18:12 34.196339 -118.367563 358 740ft 0kts
10-Apr-17 18:13 34.196339 -118.367563 358 740ft 0kts
10-Apr-17 18:14 34.196339 -118.367563 358 740ft 0kts
10-Apr-17 18:15 34.196339 -118.367563 358 740ft 0kts
10-Apr-17 18:16 34.196525 -118.366840 37 740ft 3kts
10-Apr-17 18:17 34.197028 -118.368980 321 743ft 0kts
10-Apr-17 18:18 34.197260 -118.369105 350 744ft 8kts
10-Apr-17 18:19 34.195660 -118.353603 125 1250ft 88kts
10-Apr-17 18:20 34.177740 -118.325241 94 2247ft 121kts
10-Apr-17 18:21 34.169668 -118.287816 108 3405ft 114kts
10-Apr-17 18:22 34.157635 -118.251918 110 4467ft 117kts
10-Apr-17 18:23 34.145045 -118.215385 111 5520ft 119kts
10-Apr-17 18:24 34.132435 -118.178871 112 6543ft 118kts
10-Apr-17 18:25 34.118474 -118.138639 112 7006ft 154kts
10-Apr-17 18:26 34.100611 -118.087157 112 7001ft 173kts
10-Apr-17 18:27 34.083544 -118.032484 109 6969ft 173kts
10-Apr-17 18:28 34.076391 -117.976238 91 6970ft 172kts
10-Apr-17 18:29 34.076497 -117.918508 90 6969ft 172kts
10-Apr-17 18:30 34.055156 -117.867258 116 6970ft 172kts
10-Apr-17 18:31 34.033916 -117.815527 115 6969ft 172kts
10-Apr-17 18:32 34.013061 -117.763685 115 6969ft 172kts
10-Apr-17 18:33 33.992136 -117.711685 115 6970ft 172kts
10-Apr-17 18:34 33.971202 -117.659831 115 6970ft 172kts
10-Apr-17 18:35 33.950307 -117.608167 115 6970ft 172kts
10-Apr-17 18:36 33.929261 -117.556214 115 6970ft 172kts
10-Apr-17 18:37 33.898330 -117.515894 140 7191ft 159kts
10-Apr-17 18:38 33.866266 -117.486261 143 8066ft 136kts
10-Apr-17 18:39 33.836714 -117.460917 144 8954ft 126kts
10-Apr-17 18:40 33.808538 -117.437198 144 9846ft 122kts
10-Apr-17 18:41 33.781226 -117.414712 145 10728ft 119kts
10-Apr-17 18:42 33.750447 -117.389134 145 10975ft 156kts
10-Apr-17 18:43 33.731511 -117.343237 99 10971ft 172kts
10-Apr-17 18:44 33.724436 -117.285476 96 10970ft 176kts
10-Apr-17 18:45 33.719262 -117.226794 95 10970ft 177kts
10-Apr-17 18:46 33.714413 -117.167796 95 10970ft 177kts
10-Apr-17 18:47 33.709595 -117.108794 95 10970ft 177kts
10-Apr-17 18:48 33.704712 -117.049924 95 10970ft 177kts
10-Apr-17 18:49 33.699822 -116.990799 95 10970ft 177kts
10-Apr-17 18:50 33.694940 -116.931998 95 11000ft 176kts
10-Apr-17 18:51 33.689674 -116.869296 95 10248ft 199kts
10-Apr-17 18:52 33.684053 -116.802579 95 9353ft 202kts
10-Apr-17 18:53 33.678591 -116.737856 95 9008ft 184kts
10-Apr-17 18:54 33.673539 -116.678370 95 9009ft 177kts
10-Apr-17 18:55 33.668522 -116.619788 95 9009ft 176kts
10-Apr-17 18:56 33.663513 -116.561607 95 9009ft 175kts
10-Apr-17 18:57 33.658459 -116.503257 95 9010ft 175kts
10-Apr-17 18:58 33.653383 -116.444977 95 9010ft 175kts
10-Apr-17 18:59 33.648292 -116.387475 95 8990ft 176kts
10-Apr-17 19:00 33.642752 -116.324788 95 7995ft 194kts
10-Apr-17 19:01 33.643433 -116.261001 96 6980ft 194kts
10-Apr-17 19:02 33.635735 -116.197418 98 5981ft 192kts
10-Apr-17 19:03 33.627660 -116.134682 98 4981ft 189kts
10-Apr-17 19:04 33.627227 -116.076246 137 4035ft 180kts
10-Apr-17 19:05 33.599460 -116.096491 275 4002ft 124kts
10-Apr-17 19:06 33.612174 -116.129152 301 4012ft 106kts
10-Apr-17 19:07 33.627879 -116.160014 303 4010ft 109kts
10-Apr-17 19:08 33.646422 -116.191404 306 3624ft 118kts
10-Apr-17 19:09 33.665374 -116.223918 307 3124ft 119kts
10-Apr-17 19:10 33.682951 -116.254011 307 3006ft 101kts
10-Apr-17 19:11 33.699623 -116.282599 307 3011ft 106kts
10-Apr-17 19:12 33.716740 -116.311957 307 3011ft 108kts
10-Apr-17 19:13 33.734032 -116.341641 307 3007ft 107kts
10-Apr-17 19:14 33.751107 -116.370970 307 3009ft 107kts
10-Apr-17 19:15 33.768225 -116.400393 307 2969ft 111kts
10-Apr-17 19:16 33.785942 -116.430910 307 2458ft 110kts
10-Apr-17 19:17 33.800238 -116.460797 279 2164ft 108kts
10-Apr-17 19:18 33.810861 -116.490853 323 1180ft 94kts
10-Apr-17 19:19 33.827832 -116.505837 317 426ft 16kts

Navigation Log

Ident Type
Flight plan parsing failed, navigation log unavailable